Time;durP1;ratioP1;P1;durP2;ratioP2;P2;SDS_P1;SDS_P2;PMS_P1;PMS_P2;Temp;Humidity;BMP_temperature;BMP_pressure;BME280_temperature;BME280_humidity;BME280_pressure;Samples;Min_cycle;Max_cycle;Signal;HPM_P1;HPM_P2
2022/02/07 00:00:14;;;;;;;0.40;0.30;;;;;;;4.18;100.00;98945.44;5053168;28;20473;-75
2022/02/07 00:03:03;;;;;;;0.40;0.30;;;;;;;3.99;100.00;98958.16;5052955;28;20904;-75
2022/02/07 00:05:31;;;;;;;0.40;0.20;;;;;;;3.82;100.00;98977.47;5053198;28;20430;-75
2022/02/07 00:07:59;;;;;;;0.40;0.30;;;;;;;3.71;100.00;98944.72;5053198;28;20450;-74
2022/02/07 00:10:29;;;;;;;0.40;0.20;;;;;;;3.59;100.00;98955.13;5052971;28;20458;-74
2022/02/07 00:12:55;;;;;;;0.40;0.30;;;;;;;3.46;100.00;98947.88;5053038;28;20810;-74
2022/02/07 00:15:22;;;;;;;0.40;0.20;;;;;;;3.42;100.00;98933.47;5053076;28;20446;-74
2022/02/07 00:17:49;;;;;;;0.40;0.30;;;;;;;3.41;100.00;98953.28;5053088;28;20450;-73
2022/02/07 00:20:18;;;;;;;0.40;0.30;;;;;;;3.41;100.00;98953.28;5056388;28;21017;-74
2022/02/07 00:22:47;;;;;;;0.40;0.20;;;;;;;3.42;100.00;98957.56;5057723;28;20849;-77
2022/02/07 00:25:14;;;;;;;0.40;0.20;;;;;;;3.40;100.00;98983.81;5059362;28;20454;-76
2022/02/07 00:27:41;;;;;;;0.40;0.30;;;;;;;3.41;100.00;98969.34;5058064;28;20445;-74
2022/02/07 00:30:10;;;;;;;0.40;0.30;;;;;;;3.42;100.00;98987.00;5057075;28;20487;-75
2022/02/07 00:32:36;;;;;;;0.40;0.30;;;;;;;3.38;100.00;98992.16;5057249;28;20450;-72
2022/02/07 00:35:03;;;;;;;0.40;0.30;;;;;;;3.39;100.00;99006.31;5056948;28;20426;-73
2022/02/07 00:37:32;;;;;;;0.40;0.30;;;;;;;3.41;100.00;99007.63;5056761;28;20473;-73
2022/02/07 00:40:14;;;;;;;0.40;0.20;;;;;;;3.41;100.00;99017.50;5056717;28;20501;-73
2022/02/07 00:42:51;;;;;;;0.40;0.30;;;;;;;3.42;100.00;99024.47;5056868;28;20430;-73
2022/02/07 00:45:26;;;;;;;0.40;0.30;;;;;;;3.39;100.00;99041.91;5056825;28;20488;-73
2022/02/07 00:47:58;;;;;;;0.40;0.30;;;;;;;3.38;100.00;99034.16;5056785;28;20442;-73
2022/02/07 00:50:24;;;;;;;0.40;0.20;;;;;;;3.35;100.00;99037.41;5056596;28;20556;-73
2022/02/07 00:52:51;;;;;;;0.40;0.20;;;;;;;3.38;100.00;99050.22;5056642;28;20446;-74
2022/02/07 00:55:18;;;;;;;0.40;0.30;;;;;;;3.38;100.00;99064.41;5056647;28;20450;-73
2022/02/07 00:57:45;;;;;;;0.40;0.20;;;;;;;3.39;100.00;99062.50;5056577;28;20469;-74
2022/02/07 01:00:12;;;;;;;0.40;0.20;;;;;;;3.38;100.00;99066.28;5056390;28;20830;-72
2022/02/07 01:02:39;;;;;;;0.40;0.20;;;;;;;3.41;100.00;99077.22;5056464;28;20862;-73
2022/02/07 01:05:06;;;;;;;0.40;0.30;;;;;;;3.41;100.00;99071.03;5056496;28;20813;-74
2022/02/07 01:07:32;;;;;;;0.40;0.30;;;;;;;3.44;100.00;99067.78;5056433;28;20438;-74
2022/02/07 01:09:59;;;;;;;0.40;0.30;;;;;;;3.43;100.00;99071.56;5056264;28;20453;-74
2022/02/07 01:12:42;;;;;;;0.40;0.20;;;;;;;3.45;100.00;99072.88;5056265;28;20445;-74
2022/02/07 01:15:20;;;;;;;0.40;0.23;;;;;;;3.43;100.00;99076.91;5056265;28;20433;-73
2022/02/07 01:23:33;;;;;;;0.40;0.30;;;;;;;3.34;100.00;99100.84;5018994;28;20435;-74
2022/02/07 01:51:11;;;;;;;0.40;0.23;;;;;;;3.41;100.00;99156.66;5055294;28;20489;-75
2022/02/07 01:53:49;;;;;;;0.40;0.20;;;;;;;3.44;100.00;99169.50;5055652;28;20484;-75
2022/02/07 01:56:15;;;;;;;0.40;0.30;;;;;;;3.40;100.00;99171.94;5055534;28;20430;-75
2022/02/07 01:58:42;;;;;;;0.40;0.20;;;;;;;3.39;100.00;99177.59;5055201;28;20435;-75
2022/02/07 02:01:09;;;;;;;0.40;0.23;;;;;;;3.41;100.00;99186.94;5055219;28;20494;-75
2022/02/07 02:03:36;;;;;;;0.40;0.20;;;;;;;3.40;100.00;99193.34;5055540;28;20442;-75
2022/02/07 02:06:07;;;;;;;0.40;0.30;;;;;;;3.41;100.00;99194.97;5054956;28;20794;-75
2022/02/07 02:08:33;;;;;;;0.40;0.20;;;;;;;3.44;100.00;99193.56;5055318;28;20435;-75
2022/02/07 02:11:01;;;;;;;0.40;0.20;;;;;;;3.39;100.00;99215.84;5055153;28;20979;-75
2022/02/07 02:13:38;;;;;;;0.40;0.30;;;;;;;3.39;100.00;99207.03;5055123;28;20450;-75
2022/02/07 02:16:11;;;;;;;0.40;0.30;;;;;;;3.35;100.00;99222.06;5055120;28;20468;-76
2022/02/07 02:19:18;;;;;;;0.40;0.30;;;;;;;3.36;100.00;99215.63;5054797;28;20426;-75
2022/02/07 02:22:33;;;;;;;0.40;0.30;;;;;;;3.37;99.88;99230.63;5054423;28;20489;-75
2022/02/07 02:36:20;;;;;;;0.40;0.30;;;;;;;3.28;98.57;99270.59;5049712;28;20500;-76
2022/02/07 02:39:05;;;;;;;0.40;0.20;;;;;;;3.30;98.59;99276.44;5054433;28;20926;-76
2022/02/07 02:47:06;;;;;;;0.40;0.20;;;;;;;3.28;98.34;99308.06;5054281;28;20414;-75
2022/02/07 02:49:44;;;;;;;0.40;0.30;;;;;;;3.34;98.90;99325.63;5054203;28;20497;-76
2022/02/07 02:52:10;;;;;;;0.40;0.30;;;;;;;3.37;98.14;99326.97;5054675;28;20458;-74
2022/02/07 02:54:36;;;;;;;0.40;0.30;;;;;;;3.41;98.53;99336.00;5054531;28;20503;-74
2022/02/07 02:57:05;;;;;;;0.40;0.20;;;;;;;3.43;98.89;99347.22;5054395;28;20449;-74
2022/02/07 02:59:31;;;;;;;0.40;0.30;;;;;;;3.44;99.38;99348.81;5054195;28;20450;-74
2022/02/07 03:01:58;;;;;;;0.40;0.30;;;;;;;3.45;98.58;99355.75;5054197;28;20462;-74
2022/02/07 03:04:24;;;;;;;0.40;0.20;;;;;;;3.44;98.46;99371.03;5054154;28;20446;-74
2022/02/07 03:06:50;;;;;;;0.40;0.30;;;;;;;3.45;98.17;99377.16;5054183;28;20824;-74
2022/02/07 03:09:18;;;;;;;0.40;0.30;;;;;;;3.41;97.70;99390.34;5054375;28;20450;-75
2022/02/07 03:11:44;;;;;;;0.40;0.20;;;;;;;3.41;98.67;99410.94;5053911;28;20470;-74
2022/02/07 03:14:20;;;;;;;0.40;0.20;;;;;;;3.39;98.06;99405.06;5054162;28;20434;-74
2022/02/07 03:16:45;;;;;;;0.40;0.23;;;;;;;3.36;99.19;99416.34;5053995;28;20433;-75
2022/02/07 03:19:13;;;;;;;0.40;0.20;;;;;;;3.36;99.31;99421.69;5054155;28;20869;-75
2022/02/07 03:21:41;;;;;;;0.40;0.30;;;;;;;3.33;99.56;99425.75;5053783;28;20237;-75
2022/02/07 03:24:08;;;;;;;0.40;0.20;;;;;;;3.31;100.00;99435.13;5053828;28;20446;-75
2022/02/07 03:26:38;;;;;;;0.40;0.30;;;;;;;3.27;100.00;99441.03;5053882;28;20439;-76
2022/02/07 03:29:04;;;;;;;0.40;0.30;;;;;;;3.24;100.00;99446.94;5053977;28;20493;-75
2022/02/07 03:31:37;;;;;;;0.40;0.30;;;;;;;3.20;100.00;99445.91;5053649;28;20462;-75
2022/02/07 03:34:04;;;;;;;0.40;0.20;;;;;;;3.20;100.00;99450.47;5053916;28;20456;-75
2022/02/07 03:36:32;;;;;;;0.40;0.30;;;;;;;3.22;100.00;99465.16;5053221;28;20457;-75
2022/02/07 03:38:59;;;;;;;0.40;0.23;;;;;;;3.17;100.00;99467.88;5053856;28;20544;-74
2022/02/07 03:41:25;;;;;;;0.40;0.30;;;;;;;3.19;100.00;99478.31;5053444;28;20489;-75
2022/02/07 03:43:52;;;;;;;0.40;0.20;;;;;;;3.13;100.00;99482.88;5053512;28;20446;-75
2022/02/07 03:46:19;;;;;;;0.40;0.30;;;;;;;3.19;100.00;99486.34;5053518;28;20438;-75
2022/02/07 03:48:47;;;;;;;0.40;0.20;;;;;;;3.18;100.00;99495.41;5053443;28;20469;-75
2022/02/07 03:51:13;;;;;;;0.40;0.27;;;;;;;3.16;100.00;99514.44;5053370;28;20458;-75
2022/02/07 03:53:40;;;;;;;0.40;0.30;;;;;;;3.18;100.00;99509.59;5052499;28;20452;-75
2022/02/07 03:56:08;;;;;;;0.40;0.30;;;;;;;3.18;100.00;99531.00;5053393;28;20816;-75
2022/02/07 03:58:34;;;;;;;0.40;0.30;;;;;;;3.17;100.00;99529.41;5053279;28;20446;-75
2022/02/07 04:01:01;;;;;;;0.40;0.30;;;;;;;3.14;100.00;99540.66;5052858;28;20933;-75
2022/02/07 04:03:30;;;;;;;0.40;0.20;;;;;;;3.12;100.00;99544.69;5052900;28;20967;-76
2022/02/07 04:06:01;;;;;;;0.40;0.20;;;;;;;3.11;100.00;99554.59;5053293;28;20449;-76
2022/02/07 04:08:31;;;;;;;0.40;0.30;;;;;;;3.11;100.00;99564.50;5053286;28;20430;-75
2022/02/07 04:11:06;;;;;;;0.40;0.20;;;;;;;3.14;100.00;99569.28;5053097;28;20462;-73
2022/02/07 04:13:35;;;;;;;0.40;0.30;;;;;;;3.07;100.00;99569.59;5053183;28;20430;-73
2022/02/07 04:16:03;;;;;;;0.40;0.20;;;;;;;3.00;100.00;99571.78;5053110;28;20523;-74
2022/02/07 04:18:33;;;;;;;0.40;0.30;;;;;;;3.03;100.00;99573.91;5053072;28;20449;-73
2022/02/07 04:21:02;;;;;;;0.40;0.20;;;;;;;3.04;100.00;99581.66;5052939;28;20536;-74
2022/02/07 04:23:29;;;;;;;0.40;0.20;;;;;;;3.05;100.00;99585.13;5053105;28;20818;-74
2022/02/07 04:25:55;;;;;;;0.40;0.20;;;;;;;3.05;100.00;99614.53;5053018;28;20446;-74
2022/02/07 04:28:22;;;;;;;0.40;0.30;;;;;;;2.98;100.00;99619.41;5052961;28;20446;-74
2022/02/07 04:30:49;;;;;;;0.40;0.27;;;;;;;2.98;100.00;99624.75;5052904;28;20462;-74
2022/02/07 04:33:15;;;;;;;0.40;0.20;;;;;;;2.97;100.00;99625.84;5052976;28;20446;-74
2022/02/07 04:35:42;;;;;;;0.40;0.20;;;;;;;2.92;100.00;99632.00;5052797;28;20520;-74
2022/02/07 04:38:10;;;;;;;0.40;0.23;;;;;;;2.94;100.00;99635.19;5052599;28;20457;-74
2022/02/07 04:40:36;;;;;;;0.40;0.30;;;;;;;2.93;100.00;99640.84;5052702;28;20559;-74
2022/02/07 04:43:03;;;;;;;0.40;0.27;;;;;;;2.96;100.00;99650.97;5052999;28;20438;-74
2022/02/07 04:45:40;;;;;;;0.40;0.20;;;;;;;2.98;100.00;99657.66;5052501;28;20840;-74
2022/02/07 04:48:31;;;;;;;0.40;0.30;;;;;;;3.02;100.00;99680.09;5052555;28;20897;-75
2022/02/07 04:51:15;;;;;;;0.40;0.20;;;;;;;3.01;100.00;99681.19;5052702;28;20465;-74
2022/02/07 04:54:06;;;;;;;0.40;0.30;;;;;;;3.05;100.00;99702.81;5052499;28;20461;-74
2022/02/07 04:59:20;;;;;;;0.40;0.27;;;;;;;3.09;100.00;99708.44;5052566;28;20452;-74
2022/02/07 05:01:50;;;;;;;0.40;0.20;;;;;;;3.10;100.00;99702.81;5052556;28;20489;-74
2022/02/07 05:04:29;;;;;;;0.40;0.30;;;;;;;3.13;100.00;99722.88;5053378;28;20453;-76
2022/02/07 05:15:09;;;;;;;0.40;0.20;;;;;;;3.13;100.00;99761.13;5056138;28;20410;-76
2022/02/07 05:17:38;;;;;;;0.40;0.20;;;;;;;3.16;100.00;99759.78;5056235;28;20809;-75
2022/02/07 05:20:06;;;;;;;0.40;0.30;;;;;;;3.13;100.00;99771.81;5056229;28;20903;-75
2022/02/07 05:22:32;;;;;;;0.40;0.30;;;;;;;3.18;100.00;99779.81;5056112;28;20450;-76
2022/02/07 05:25:00;;;;;;;0.40;0.30;;;;;;;3.18;100.00;99779.81;5056054;28;20533;-76
2022/02/07 05:27:27;;;;;;;0.40;0.30;;;;;;;3.18;100.00;99789.72;5055923;28;20446;-74
2022/02/07 05:29:53;;;;;;;0.40;0.30;;;;;;;3.23;100.00;99795.91;5056085;28;20445;-75
2022/02/07 05:32:20;;;;;;;0.40;0.30;;;;;;;3.19;100.00;99797.50;5056201;28;20438;-76
2022/02/07 05:34:47;;;;;;;0.40;0.30;;;;;;;3.21;100.00;99802.56;5055664;28;20973;-74
2022/02/07 05:37:15;;;;;;;0.40;0.30;;;;;;;3.27;100.00;99818.34;5055515;28;20457;-74
2022/02/07 05:39:44;;;;;;;0.40;0.30;;;;;;;3.31;100.00;99818.59;5055547;28;20454;-74
2022/02/07 05:42:12;;;;;;;0.40;0.30;;;;;;;3.34;100.00;99825.31;5055487;28;20490;-76
2022/02/07 05:44:39;;;;;;;0.40;0.20;;;;;;;3.31;100.00;99841.88;5055637;28;20442;-76
2022/02/07 05:47:06;;;;;;;0.40;0.30;;;;;;;3.38;99.94;99851.25;5055188;28;20457;-69
2022/02/07 05:49:33;;;;;;;0.40;0.23;;;;;;;3.44;100.00;99857.38;5055325;28;20446;-73
2022/02/07 05:52:00;;;;;;;0.40;0.30;;;;;;;3.44;99.37;99850.16;5055229;28;20466;-70
2022/02/07 05:54:26;;;;;;;0.40;0.20;;;;;;;3.47;99.69;99868.34;5055239;28;20449;-74
2022/02/07 05:56:53;;;;;;;0.40;0.20;;;;;;;3.49;100.00;99854.69;5055333;28;20446;-74
2022/02/07 05:59:20;;;;;;;0.40;0.20;;;;;;;3.53;100.00;99863.78;5055460;28;20450;-74
2022/02/07 06:01:47;;;;;;;0.40;0.30;;;;;;;3.50;98.88;99880.41;5055249;28;20489;-74
2022/02/07 06:04:13;;;;;;;0.40;0.20;;;;;;;3.50;98.60;99899.16;5055375;28;20445;-75
2022/02/07 06:06:40;;;;;;;0.40;0.30;;;;;;;3.53;98.88;99901.25;5055306;28;20449;-74
2022/02/07 06:09:07;;;;;;;0.40;0.30;;;;;;;3.53;98.62;99909.28;5055317;28;20856;-74
2022/02/07 06:11:34;;;;;;;0.40;0.30;;;;;;;3.49;97.95;99909.03;5055156;28;20528;-74
2022/02/07 06:14:00;;;;;;;0.40;0.30;;;;;;;3.53;98.60;99922.69;5055216;28;20475;-75
2022/02/07 06:16:31;;;;;;;0.40;0.20;;;;;;;3.56;98.37;99935.53;5054179;28;20442;-74
2022/02/07 06:19:01;;;;;;;0.40;0.20;;;;;;;3.52;97.81;99945.19;5055385;28;20431;-76
2022/02/07 06:21:28;;;;;;;0.40;0.20;;;;;;;3.54;98.36;99954.56;5054807;28;20486;-75
2022/02/07 06:23:55;;;;;;;0.40;0.30;;;;;;;3.57;98.60;99955.06;5054837;28;20540;-76
2022/02/07 06:26:21;;;;;;;0.40;0.30;;;;;;;3.58;98.24;99964.72;5054841;28;20449;-75
2022/02/07 06:28:48;;;;;;;0.40;0.30;;;;;;;3.56;98.30;99962.31;5054926;28;20465;-73
2022/02/07 06:31:14;;;;;;;0.40;0.30;;;;;;;3.62;99.14;99969.25;5054570;28;20512;-76
2022/02/07 06:33:42;;;;;;;0.40;0.20;;;;;;;3.61;99.13;99980.25;5054733;28;20446;-77
2022/02/07 06:36:08;;;;;;;0.40;0.30;;;;;;;3.67;98.04;99979.94;5054635;28;20463;-74
2022/02/07 06:38:35;;;;;;;0.40;0.20;;;;;;;3.69;97.91;99987.75;5054670;28;20864;-74
2022/02/07 06:41:01;;;;;;;0.40;0.23;;;;;;;3.66;97.86;100001.66;5054526;28;20497;-74
2022/02/07 06:43:28;;;;;;;0.40;0.30;;;;;;;3.62;97.79;99997.91;5054295;28;20939;-74
2022/02/07 06:45:54;;;;;;;0.40;0.20;;;;;;;3.67;98.04;100014.75;5054529;28;20450;-74
2022/02/07 06:48:20;;;;;;;0.40;0.30;;;;;;;3.71;98.23;100017.72;5054480;28;20493;-74
2022/02/07 06:50:48;;;;;;;0.40;0.30;;;;;;;3.76;98.03;100031.94;5054424;28;20465;-74
2022/02/07 06:53:15;;;;;;;0.40;0.20;;;;;;;3.76;96.59;100028.41;5054345;28;20450;-74
2022/02/07 06:55:41;;;;;;;0.40;0.30;;;;;;;3.76;97.53;100029.25;5054353;28;20446;-74
2022/02/07 06:58:08;;;;;;;0.40;0.20;;;;;;;3.82;97.57;100038.06;5054303;28;20446;-74
2022/02/07 07:00:35;;;;;;;0.40;0.30;;;;;;;3.78;97.45;100066.47;5053848;28;20955;-74
2022/02/07 07:03:01;;;;;;;0.40;0.30;;;;;;;3.78;97.25;100050.41;5054157;28;20489;-73
2022/02/07 07:05:28;;;;;;;0.40;0.20;;;;;;;3.83;97.47;100057.63;5054305;28;20445;-74
2022/02/07 07:07:56;;;;;;;0.40;0.30;;;;;;;3.86;97.55;100062.47;5054019;28;20457;-73
2022/02/07 07:10:23;;;;;;;0.40;0.20;;;;;;;3.87;97.62;100064.84;5054111;28;20466;-73
2022/02/07 07:12:57;;;;;;;0.40;0.30;;;;;;;3.93;97.06;100084.41;5054152;28;20542;-74
2022/02/07 07:15:30;;;;;;;0.40;0.30;;;;;;;3.90;96.87;100087.63;5053773;28;20904;-73
2022/02/07 07:17:56;;;;;;;0.40;0.30;;;;;;;3.93;97.51;100089.75;5054064;28;20454;-73
2022/02/07 07:20:23;;;;;;;0.40;0.30;;;;;;;3.92;96.72;100093.50;5053850;28;20466;-73
2022/02/07 07:22:49;;;;;;;0.40;0.30;;;;;;;3.94;96.87;100112.78;5073782;22;20489;-77
2022/02/07 07:25:17;;;;;;;0.40;0.27;;;;;;;3.98;96.63;100103.94;5074460;28;20449;-77
2022/02/07 07:27:56;;;;;;;0.40;0.20;;;;;;;3.99;96.49;100120.84;5093112;22;20509;-70
2022/02/07 07:30:26;;;;;;;0.40;0.20;;;;;;;4.04;97.45;100128.88;5093941;28;20440;-69
2022/02/07 07:32:58;;;;;;;0.40;0.27;;;;;;;4.07;97.16;100132.88;5093591;28;20970;-69
2022/02/07 07:35:24;;;;;;;0.40;0.30;;;;;;;4.07;97.02;100139.03;5094013;28;20435;-70
2022/02/07 07:37:51;;;;;;;0.40;0.20;;;;;;;4.08;96.09;100138.00;5093865;28;20451;-70
2022/02/07 07:40:19;;;;;;;0.40;0.20;;;;;;;4.10;96.51;100148.44;5093498;28;20967;-70
2022/02/07 07:42:52;;;;;;;0.40;0.30;;;;;;;4.12;96.07;100149.78;5093624;28;20537;-70
2022/02/07 07:45:20;;;;;;;0.40;0.20;;;;;;;4.06;95.55;100150.84;5093846;28;20425;-70
2022/02/07 07:47:48;;;;;;;0.40;0.30;;;;;;;4.11;96.46;100150.03;5093811;28;20852;-70
2022/02/07 07:50:19;;;;;;;0.40;0.30;;;;;;;4.10;96.75;100159.97;5093724;28;20444;-70
2022/02/07 07:53:02;;;;;;;0.40;0.30;;;;;;;4.12;95.57;100167.72;5093659;28;20463;-70
2022/02/07 08:01:22;;;;;;;0.40;0.30;;;;;;;4.09;95.98;100185.16;5093333;28;20412;-68
2022/02/07 08:01:23;;;;;;;0.40;0.30;;;;;;;4.09;95.32;100184.34;5093280;28;20898;-70
2022/02/07 08:03:51;;;;;;;0.40;0.30;;;;;;;4.14;96.12;100200.44;5093321;28;20448;-68
2022/02/07 08:06:22;;;;;;;0.40;0.30;;;;;;;4.21;95.58;100204.47;5093422;28;20440;-72
2022/02/07 08:09:01;;;;;;;0.40;0.30;;;;;;;4.25;95.50;100210.91;5094015;28;20432;-67
2022/02/07 08:11:30;;;;;;;0.40;0.30;;;;;;;4.19;95.65;100217.31;5093351;28;20438;-69
2022/02/07 08:13:57;;;;;;;0.40;0.30;;;;;;;4.24;95.70;100220.00;5093351;28;20440;-68
2022/02/07 08:16:24;;;;;;;0.40;0.23;;;;;;;4.28;95.74;100229.09;5093258;28;20490;-67
2022/02/07 08:18:50;;;;;;;0.40;0.30;;;;;;;4.30;95.96;100239.59;5093025;28;20851;-68
2022/02/07 08:21:17;;;;;;;0.40;0.27;;;;;;;4.32;95.94;100231.25;5092916;28;20942;-68
2022/02/07 08:23:43;;;;;;;0.40;0.20;;;;;;;4.33;96.51;100240.91;5093231;28;20448;-70
2022/02/07 08:26:10;;;;;;;0.40;0.30;;;;;;;4.31;94.99;100254.59;5092975;28;20946;-68
2022/02/07 08:28:38;;;;;;;0.40;0.30;;;;;;;4.36;94.73;100259.16;5092795;28;20504;-70
2022/02/07 08:31:05;;;;;;;0.40;0.30;;;;;;;4.42;95.57;100266.09;5093115;28;20443;-70
2022/02/07 08:33:31;;;;;;;0.40;0.30;;;;;;;4.45;94.53;100269.06;5092995;28;20457;-69
2022/02/07 08:35:58;;;;;;;0.40;0.30;;;;;;;4.44;93.91;100291.59;5093106;28;20436;-69
2022/02/07 08:38:24;;;;;;;0.40;0.20;;;;;;;4.42;93.92;100292.91;5093138;28;20444;-70
2022/02/07 08:40:51;;;;;;;0.40;0.27;;;;;;;4.44;94.16;100288.13;5096153;28;20444;-69
2022/02/07 08:43:17;;;;;;;0.40;0.30;;;;;;;4.54;94.62;100288.09;5096992;28;20499;-69
2022/02/07 08:45:45;;;;;;;0.40;0.30;;;;;;;4.55;93.94;100295.88;5097133;28;20444;-69
2022/02/07 08:48:11;;;;;;;0.40;0.30;;;;;;;4.56;93.94;100304.75;5097106;28;20439;-69
2022/02/07 08:50:38;;;;;;;0.40;0.20;;;;;;;4.57;93.99;100301.00;5097021;28;20801;-69
2022/02/07 08:53:05;;;;;;;0.40;0.30;;;;;;;4.58;93.57;100307.97;5096948;28;20490;-69
2022/02/07 08:55:35;;;;;;;0.40;0.30;;;;;;;4.62;93.94;100316.28;5096635;28;20857;-69
2022/02/07 08:58:06;;;;;;;0.40;0.20;;;;;;;4.62;93.14;100316.28;5096951;28;20448;-69
2022/02/07 09:00:47;;;;;;;0.40;0.30;;;;;;;4.66;93.43;100312.78;5096608;28;20416;-69
2022/02/07 09:06:05;;;;;;;0.40;0.20;;;;;;;4.77;93.20;100325.13;5096852;28;20891;-68
2022/02/07 09:08:50;;;;;;;0.40;0.30;;;;;;;4.82;93.10;100327.00;5097081;28;20438;-69
2022/02/07 09:11:17;;;;;;;0.40;0.20;;;;;;;4.79;92.43;100341.78;5096737;28;20425;-69
2022/02/07 09:13:46;;;;;;;0.40;0.20;;;;;;;4.82;92.24;100348.47;5096332;28;20448;-69
2022/02/07 09:16:29;;;;;;;0.40;0.20;;;;;;;4.88;92.23;100346.59;5096625;28;20466;-69
2022/02/07 09:18:57;;;;;;;0.40;0.20;;;;;;;4.84;91.95;100350.91;5096624;28;20524;-69
2022/02/07 09:21:25;;;;;;;0.40;0.20;;;;;;;4.89;92.14;100348.22;5095942;28;20448;-69
2022/02/07 09:23:52;;;;;;;0.40;0.30;;;;;;;4.94;91.91;100354.38;5096139;28;20999;-69
2022/02/07 09:26:18;;;;;;;0.40;0.30;;;;;;;4.99;91.36;100364.28;5096391;28;20440;-69
2022/02/07 09:28:45;;;;;;;0.40;0.20;;;;;;;5.05;91.20;100360.56;5096107;28;20448;-69
2022/02/07 09:31:11;;;;;;;0.40;0.30;;;;;;;5.04;91.22;100372.34;5096284;28;20437;-68
2022/02/07 09:33:38;;;;;;;0.40;0.27;;;;;;;5.14;90.95;100372.34;5096194;28;20464;-69
2022/02/07 09:36:06;;;;;;;0.40;0.30;;;;;;;5.21;90.42;100380.13;5096414;28;20468;-69
2022/02/07 09:38:33;;;;;;;0.40;0.30;;;;;;;5.19;90.16;100396.50;5096169;28;20449;-69
2022/02/07 09:41:00;;;;;;;0.40;0.20;;;;;;;5.30;90.03;100403.47;5096059;28;20435;-68
2022/02/07 09:43:32;;;;;;;0.40;0.30;;;;;;;5.41;89.62;100406.16;5095569;28;21001;-69
2022/02/07 09:46:05;;;;;;;0.40;0.20;;;;;;;5.42;88.99;100394.34;5096021;28;20449;-70
2022/02/07 09:48:33;;;;;;;0.40;0.30;;;;;;;5.45;89.28;100396.47;5095924;28;20432;-69
2022/02/07 09:51:00;;;;;;;0.40;0.30;;;;;;;5.49;89.65;100405.59;5094158;28;20468;-69
2022/02/07 09:53:28;;;;;;;0.40;0.30;;;;;;;5.56;89.78;100409.59;5095759;28;20490;-69
2022/02/07 09:55:54;;;;;;;0.40;0.20;;;;;;;5.57;89.02;100423.84;5095834;28;20471;-70
2022/02/07 09:58:21;;;;;;;0.40;0.20;;;;;;;5.62;87.94;100439.94;5095473;28;20957;-69
2022/02/07 10:00:48;;;;;;;0.40;0.30;;;;;;;5.66;87.55;100441.03;5095703;28;20447;-69
2022/02/07 10:03:18;;;;;;;0.40;0.20;;;;;;;5.76;87.51;100449.09;5095534;28;20574;-68
2022/02/07 10:05:51;;;;;;;0.40;0.30;;;;;;;5.90;86.10;100456.56;5096461;28;20444;-69
2022/02/07 10:08:22;;;;;;;0.40;0.20;;;;;;;5.97;84.96;100459.78;5095558;28;20734;-70
2022/02/07 10:11:10;;;;;;;0.40;0.20;;;;;;;6.06;85.16;100472.44;5095558;28;20819;-68
2022/02/07 10:13:47;;;;;;;0.40;0.20;;;;;;;6.18;84.24;100471.31;5095494;28;20464;-69
2022/02/07 10:16:35;;;;;;;0.40;0.30;;;;;;;6.19;83.17;100479.09;5095508;28;20416;-69
2022/02/07 10:19:20;;;;;;;0.40;0.30;;;;;;;6.23;82.90;100492.78;5095369;28;20459;-69
2022/02/07 10:22:14;;;;;;;0.40;0.30;;;;;;;6.22;83.26;100496.56;5095207;28;20517;-69
2022/02/07 10:36:15;;;;;;;0.40;0.30;;;;;;;6.44;79.74;100539.25;5094864;28;20412;-70
2022/02/07 10:38:55;;;;;;;0.40;0.30;;;;;;;6.40;79.85;100528.25;5094938;28;20517;-69
2022/02/07 10:41:43;;;;;;;0.40;0.30;;;;;;;6.38;79.36;100556.50;5094805;28;20797;-69
2022/02/07 10:44:32;;;;;;;0.40;0.27;;;;;;;6.31;79.48;100543.34;5094945;28;20412;-69
2022/02/07 10:47:05;;;;;;;0.40;0.30;;;;;;;6.38;80.46;100543.88;5094879;28;20516;-70
2022/02/07 10:49:31;;;;;;;0.40;0.30;;;;;;;6.47;80.89;100549.50;5094770;28;20806;-69
2022/02/07 10:51:59;;;;;;;0.40;0.30;;;;;;;6.54;79.33;100544.59;5094306;28;20500;-69
2022/02/07 10:54:27;;;;;;;0.40;0.30;;;;;;;6.57;78.83;100554.81;5094677;28;20479;-69
2022/02/07 10:56:54;;;;;;;0.40;0.30;;;;;;;6.70;76.72;100554.22;5094625;28;20436;-69
2022/02/07 10:59:22;;;;;;;0.40;0.30;;;;;;;6.75;76.60;100562.28;5094629;28;20444;-68
2022/02/07 11:04:46;;;;;;;0.40;0.30;;;;;;;6.80;73.39;100575.72;5078117;28;20532;-69
2022/02/07 11:07:13;;;;;;;0.40;0.30;;;;;;;6.74;72.70;100582.22;5094700;28;20483;-70
2022/02/07 11:09:53;;;;;;;0.40;0.30;;;;;;;6.71;74.87;100579.25;5094048;28;20827;-69
2022/02/07 11:12:43;;;;;;;0.40;0.30;;;;;;;6.89;73.73;100596.69;5094316;28;20464;-69
2022/02/07 11:15:22;;;;;;;0.40;0.20;;;;;;;7.00;72.63;100590.97;5094275;28;20482;-69
2022/02/07 11:18:00;;;;;;;0.40;0.30;;;;;;;6.99;74.11;100607.41;5094006;28;21012;-68
2022/02/07 11:20:41;;;;;;;0.40;0.30;;;;;;;6.88;72.53;100632.78;5094314;28;20436;-67
2022/02/07 11:23:21;;;;;;;0.40;0.30;;;;;;;6.90;72.72;100633.28;5094058;28;20480;-69
2022/02/07 11:25:53;;;;;;;0.40;0.30;;;;;;;6.75;72.25;100621.50;5094149;28;20429;-68
2022/02/07 11:28:25;;;;;;;0.40;0.30;;;;;;;6.75;71.62;100637.66;5092145;28;20817;-69
2022/02/07 11:30:53;;;;;;;0.40;0.30;;;;;;;6.87;73.51;100647.31;5094035;28;20800;-69
2022/02/07 11:33:32;;;;;;;0.40;0.20;;;;;;;6.84;71.90;100645.97;5094176;28;20460;-68
2022/02/07 11:35:59;;;;;;;0.40;0.30;;;;;;;6.95;71.59;100639.47;5093754;28;20432;-69
2022/02/07 11:38:26;;;;;;;0.40;0.30;;;;;;;6.97;71.19;100663.44;5093890;28;20474;-69
2022/02/07 11:41:02;;;;;;;0.40;0.20;;;;;;;6.97;72.21;100649.97;5093915;28;20516;-69
2022/02/07 11:43:31;;;;;;;0.40;0.30;;;;;;;6.97;71.72;100653.47;5093626;28;20486;-69
2022/02/07 11:45:59;;;;;;;0.40;0.30;;;;;;;6.86;70.08;100680.69;5093748;28;20441;-69
2022/02/07 11:48:34;;;;;;;0.40;0.20;;;;;;;6.90;69.55;100662.91;5093712;28;20440;-68
2022/02/07 11:51:04;;;;;;;0.40;0.30;;;;;;;6.86;70.03;100661.84;5093728;28;20428;-69
2022/02/07 11:53:32;;;;;;;0.40;0.20;;;;;;;6.88;69.56;100670.47;5093823;28;20457;-68
2022/02/07 11:56:07;;;;;;;0.40;0.27;;;;;;;6.81;68.56;100678.81;5093928;28;20451;-69
2022/02/07 11:59:11;;;;;;;0.40;0.20;;;;;;;6.77;68.14;100664.28;5093555;28;20511;-69
2022/02/07 12:01:54;;;;;;;0.40;0.20;;;;;;;6.83;69.84;100688.25;5093499;28;20531;-68
2022/02/07 12:04:32;;;;;;;0.40;0.30;;;;;;;6.93;69.39;100691.97;5093500;28;20653;-69
2022/02/07 12:07:30;;;;;;;0.40;0.30;;;;;;;6.92;69.08;100685.78;5093516;28;20499;-69
2022/02/07 12:10:28;;;;;;;0.40;0.30;;;;;;;6.95;69.23;100711.34;5073683;28;20531;-69
2022/02/07 12:12:58;;;;;;;0.40;0.30;;;;;;;6.92;64.54;100706.53;5092429;28;20563;-69
2022/02/07 12:15:32;;;;;;;0.40;0.30;;;;;;;7.06;66.45;100712.94;5093130;28;20440;-69
2022/02/07 12:18:00;;;;;;;0.40;0.30;;;;;;;7.11;66.18;100688.69;5093472;28;20435;-68
2022/02/07 12:20:33;;;;;;;0.40;0.20;;;;;;;7.14;66.85;100715.09;5093831;28;20440;-66
2022/02/07 12:23:06;;;;;;;0.40;0.20;;;;;;;7.43;64.26;100730.59;5093189;28;20491;-68
2022/02/07 12:25:45;;;;;;;0.40;0.30;;;;;;;7.92;61.21;100735.19;5093227;28;20421;-69
2022/02/07 12:28:16;;;;;;;0.40;0.30;;;;;;;8.15;58.10;100734.50;5092918;28;20518;-69
2022/02/07 12:30:48;;;;;;;0.40;0.30;;;;;;;8.03;58.49;100734.03;5093321;28;20421;-69
2022/02/07 12:33:16;;;;;;;0.40;0.30;;;;;;;7.83;59.25;100749.28;5093112;28;20461;-69
2022/02/07 12:35:45;;;;;;;0.40;0.30;;;;;;;7.50;58.22;100745.38;5093132;28;20448;-69
2022/02/07 12:38:13;;;;;;;0.40;0.30;;;;;;;7.40;58.94;100742.75;5092823;28;20827;-69
2022/02/07 12:40:39;;;;;;;0.40;0.30;;;;;;;7.25;58.29;100742.78;5093097;28;20521;-69
2022/02/07 12:43:10;;;;;;;0.40;0.30;;;;;;;7.21;59.87;100757.88;5092902;28;20882;-69
2022/02/07 12:45:38;;;;;;;0.40;0.30;;;;;;;7.18;59.48;100764.63;5093174;28;20463;-69
2022/02/07 12:48:12;;;;;;;0.40;0.30;;;;;;;7.14;59.60;100766.25;5092987;28;20448;-69
2022/02/07 12:50:39;;;;;;;0.40;0.30;;;;;;;7.05;60.94;100760.63;5093058;28;20784;-68
2022/02/07 12:53:07;;;;;;;0.40;0.30;;;;;;;7.00;61.87;100763.34;5092985;28;20456;-68
2022/02/07 12:55:35;;;;;;;0.40;0.30;;;;;;;7.23;61.52;100775.41;5093064;28;20444;-68
2022/02/07 12:58:01;;;;;;;0.40;0.20;;;;;;;7.61;60.38;100774.97;5092950;28;20450;-69
2022/02/07 13:00:28;;;;;;;0.40;0.30;;;;;;;7.93;59.63;100778.06;5092981;28;20470;-68
2022/02/07 13:02:54;;;;;;;0.40;0.30;;;;;;;7.92;59.60;100791.81;5092488;28;20484;-68
2022/02/07 13:05:22;;;;;;;0.40;0.30;;;;;;;7.83;60.00;100791.59;5093120;28;20440;-69
2022/02/07 13:07:50;;;;;;;0.40;0.30;;;;;;;7.75;59.17;100794.88;5092903;28;20448;-68